Time;durP1;ratioP1;P1;durP2;ratioP2;P2;SDS_P1;SDS_P2;PMS_P1;PMS_P2;Temp;Humidity;BMP_temperature;BMP_pressure;BME280_temperature;BME280_humidity;BME280_pressure;Samples;Min_cycle;Max_cycle;Signal;HPM_P1;HPM_P2
2021/01/14 00:00:19;;;;;;;0.82;0.75;;;2.50;99.90;;;;;;5054622;28;20021;-80
2021/01/14 00:02:44;;;;;;;0.55;0.40;;;2.50;99.90;;;;;;5052578;28;20412;-81
2021/01/14 00:05:12;;;;;;;0.57;0.50;;;2.50;99.90;;;;;;5054200;28;20116;-80
2021/01/14 00:07:38;;;;;;;0.90;0.80;;;2.50;99.90;;;;;;5053300;28;20029;-79
2021/01/14 00:10:05;;;;;;;0.85;0.70;;;2.50;99.90;;;;;;5053388;28;20032;-80
2021/01/14 00:12:32;;;;;;;0.55;0.35;;;2.50;99.90;;;;;;5052217;28;20103;-80
2021/01/14 00:14:58;;;;;;;1.00;0.60;;;2.50;99.90;;;;;;5051068;28;20031;-80
2021/01/14 00:17:23;;;;;;;0.77;0.63;;;2.40;99.90;;;;;;5052461;28;20033;-80
2021/01/14 00:19:50;;;;;;;0.65;0.40;;;2.40;99.90;;;;;;5051577;28;20500;-80
2021/01/14 00:22:16;;;;;;;0.73;0.43;;;2.50;99.90;;;;;;5053263;28;20037;-79
2021/01/14 00:24:42;;;;;;;1.02;0.70;;;2.40;99.90;;;;;;5052333;28;20680;-78
2021/01/14 00:27:09;;;;;;;0.93;0.68;;;2.40;99.90;;;;;;5052833;28;20044;-79
2021/01/14 00:29:35;;;;;;;0.88;0.60;;;2.40;99.90;;;;;;5052709;28;20039;-80
2021/01/14 00:32:02;;;;;;;1.27;1.00;;;2.40;99.90;;;;;;5052729;28;20021;-81
2021/01/14 00:34:27;;;;;;;0.77;0.60;;;2.40;99.90;;;;;;5052127;28;20035;-79
2021/01/14 00:39:37;;;;;;;1.85;0.70;;;2.40;99.90;;;;;;5034078;28;20060;-80
2021/01/14 00:42:03;;;;;;;0.70;0.60;;;2.40;99.90;;;;;;5050000;28;20028;-80
2021/01/14 00:44:28;;;;;;;0.70;0.70;;;2.30;99.90;;;;;;5052443;28;20100;-80
2021/01/14 00:46:56;;;;;;;0.68;0.50;;;2.30;99.90;;;;;;5052095;28;20021;-80
2021/01/14 00:49:23;;;;;;;1.13;0.88;;;2.20;99.90;;;;;;5052137;28;20037;-79
2021/01/14 00:51:49;;;;;;;0.93;0.82;;;2.20;99.90;;;;;;5051681;28;20032;-78
2021/01/14 00:54:15;;;;;;;0.82;0.68;;;2.20;99.90;;;;;;5052939;28;20032;-78
2021/01/14 00:56:41;;;;;;;1.17;0.88;;;2.10;99.90;;;;;;5033965;28;20036;-79
2021/01/14 00:59:07;;;;;;;0.95;0.60;;;2.20;99.90;;;;;;5051708;28;20032;-78
2021/01/14 01:01:34;;;;;;;0.73;0.50;;;2.20;99.90;;;;;;5051755;28;20025;-79
2021/01/14 01:04:00;;;;;;;0.95;0.70;;;2.20;99.90;;;;;;5052660;28;20025;-81
2021/01/14 01:06:37;;;;;;;0.73;0.60;;;2.20;99.90;;;;;;5051156;28;20052;-80
2021/01/14 01:09:04;;;;;;;1.00;0.80;;;2.30;99.90;;;;;;5029561;28;20071;-82
2021/01/14 01:11:30;;;;;;;1.30;0.70;;;2.20;99.90;;;;;;5052337;28;20025;-80
2021/01/14 01:13:56;;;;;;;1.50;0.75;;;2.20;99.90;;;;;;5051923;28;20052;-80
2021/01/14 01:16:21;;;;;;;3.35;1.15;;;2.20;99.90;;;;;;5051789;28;20048;-80
2021/01/14 01:18:47;;;;;;;1.25;0.77;;;2.20;99.90;;;;;;5051801;28;20025;-81
2021/01/14 01:21:14;;;;;;;1.65;0.95;;;2.20;99.90;;;;;;5067722;28;20017;-80
2021/01/14 01:23:41;;;;;;;1.50;0.93;;;2.10;99.90;;;;;;5073589;28;20068;-80
2021/01/14 01:26:07;;;;;;;2.08;1.17;;;2.20;99.90;;;;;;5051950;28;20154;-81
2021/01/14 01:28:33;;;;;;;0.90;0.80;;;2.20;99.90;;;;;;5051597;28;20024;-81
2021/01/14 01:30:59;;;;;;;0.98;0.70;;;2.10;99.90;;;;;;5049735;28;20112;-80
2021/01/14 01:33:28;;;;;;;1.92;1.30;;;2.10;99.90;;;;;;5051255;28;20112;-80
2021/01/14 01:35:55;;;;;;;1.63;0.95;;;2.10;99.90;;;;;;5051281;28;20131;-82
2021/01/14 01:38:21;;;;;;;3.08;1.70;;;2.10;99.90;;;;;;5052338;28;20029;-80
2021/01/14 01:40:57;;;;;;;2.60;1.50;;;2.10;99.90;;;;;;5055010;28;20036;-79
2021/01/14 01:43:23;;;;;;;3.85;1.48;;;2.00;99.90;;;;;;5057122;28;20366;-80
2021/01/14 01:45:49;;;;;;;2.50;1.38;;;2.10;99.90;;;;;;5054688;28;20025;-80
2021/01/14 01:48:17;;;;;;;2.28;1.35;;;2.10;99.90;;;;;;5057715;28;20027;-81
2021/01/14 01:50:47;;;;;;;3.53;2.30;;;2.10;99.90;;;;;;5052107;28;20043;-80
2021/01/14 01:53:12;;;;;;;;;;;2.10;99.90;;;;;;5052226;28;20084;-79
2021/01/14 01:55:39;;;;;;;3.20;1.75;;;2.00;99.90;;;;;;5051395;28;19958;-80
2021/01/14 01:58:05;;;;;;;3.10;1.90;;;2.00;99.90;;;;;;5050857;28;20029;-80
2021/01/14 02:00:31;;;;;;;3.85;2.30;;;2.00;99.90;;;;;;5050434;28;20029;-80
2021/01/14 02:02:57;;;;;;;3.28;2.30;;;2.00;99.90;;;;;;5051201;28;20458;-80
2021/01/14 02:05:23;;;;;;;3.42;2.30;;;2.00;99.90;;;;;;5052191;28;20105;-81
2021/01/14 02:07:48;;;;;;;2.55;1.77;;;2.00;99.90;;;;;;5050085;28;20029;-81
2021/01/14 02:10:41;;;;;;;2.70;1.85;;;2.00;99.90;;;;;;5051376;28;20071;-80
2021/01/14 02:13:31;;;;;;;3.53;2.05;;;2.00;99.90;;;;;;5042105;28;20602;-81
2021/01/14 02:15:58;;;;;;;2.47;1.63;;;2.00;99.90;;;;;;5042321;28;20090;-81
2021/01/14 02:18:24;;;;;;;2.38;1.45;;;1.90;99.90;;;;;;5033565;28;20140;-80
2021/01/14 02:20:54;;;;;;;1.90;1.75;;;2.00;99.90;;;;;;5049002;28;20052;-80
2021/01/14 02:23:47;;;;;;;2.55;1.40;;;1.90;99.90;;;;;;5045333;28;20017;-81
2021/01/14 02:26:16;;;;;;;1.05;0.73;;;1.90;99.90;;;;;;5046477;28;20124;-81
2021/01/14 02:28:45;;;;;;;2.13;1.40;;;2.00;99.90;;;;;;5051866;28;20407;-80
2021/01/14 02:31:13;;;;;;;1.85;1.08;;;1.90;99.90;;;;;;5046061;28;20123;-80
2021/01/14 02:33:39;;;;;;;2.33;1.63;;;1.90;99.90;;;;;;5033602;28;20073;-79
2021/01/14 02:36:05;;;;;;;2.20;1.48;;;1.90;99.90;;;;;;5051446;28;20037;-81
2021/01/14 02:38:31;;;;;;;2.25;1.50;;;1.90;99.90;;;;;;5052022;28;20018;-80
2021/01/14 02:40:57;;;;;;;2.10;1.33;;;1.90;99.90;;;;;;5050502;28;20033;-80
2021/01/14 02:43:22;;;;;;;2.40;1.70;;;1.90;99.90;;;;;;5054632;28;20043;-80
2021/01/14 02:45:48;;;;;;;3.20;1.88;;;1.90;99.90;;;;;;5054108;28;20024;-79
2021/01/14 02:48:19;;;;;;;2.43;1.83;;;1.90;99.90;;;;;;5055242;28;20488;-79
2021/01/14 02:50:48;;;;;;;3.55;1.77;;;1.90;99.90;;;;;;5054076;28;20357;-81
2021/01/14 02:53:15;;;;;;;2.97;1.88;;;1.90;99.90;;;;;;5056965;28;20040;-80
2021/01/14 02:55:42;;;;;;;3.55;1.90;;;1.90;99.90;;;;;;5054877;28;20037;-81
2021/01/14 02:58:07;;;;;;;3.30;2.08;;;1.90;99.90;;;;;;5052981;28;20029;-80
2021/01/14 03:00:33;;;;;;;4.55;2.10;;;1.90;99.90;;;;;;5053124;28;20043;-80
2021/01/14 03:02:59;;;;;;;2.80;1.95;;;1.90;99.90;;;;;;5053311;28;20041;-79
2021/01/14 03:05:25;;;;;;;2.43;1.67;;;1.90;99.90;;;;;;5054546;28;20680;-80
2021/01/14 03:07:50;;;;;;;1.45;1.02;;;1.90;99.90;;;;;;5037011;28;20663;-82
2021/01/14 03:10:16;;;;;;;2.15;1.27;;;1.90;99.90;;;;;;5054853;28;20059;-81
2021/01/14 03:12:41;;;;;;;2.40;1.92;;;1.90;99.90;;;;;;5054541;28;20037;-79
2021/01/14 03:15:08;;;;;;;2.30;1.30;;;1.90;99.90;;;;;;5036852;28;20037;-79
2021/01/14 03:17:35;;;;;;;2.22;1.27;;;1.90;99.90;;;;;;5076608;28;20048;-79
2021/01/14 03:20:01;;;;;;;4.22;1.63;;;1.90;99.90;;;;;;5082255;28;20040;-81
2021/01/14 03:22:28;;;;;;;2.05;1.30;;;1.80;99.90;;;;;;5081921;28;20480;-81
2021/01/14 03:24:53;;;;;;;1.23;0.93;;;1.80;99.90;;;;;;5037667;28;20538;-80
2021/01/14 03:27:19;;;;;;;3.05;1.55;;;1.80;99.90;;;;;;5054373;28;20036;-79
2021/01/14 03:29:45;;;;;;;3.40;2.00;;;1.80;99.90;;;;;;5036638;28;20036;-80
2021/01/14 03:32:10;;;;;;;2.75;1.63;;;1.80;99.90;;;;;;5048456;28;20064;-81
2021/01/14 03:34:36;;;;;;;1.92;1.23;;;1.80;99.90;;;;;;5053259;28;20033;-80
2021/01/14 03:37:03;;;;;;;2.15;1.27;;;1.80;99.90;;;;;;5053570;28;20036;-82
2021/01/14 03:39:29;;;;;;;1.90;1.27;;;1.80;99.90;;;;;;5053414;28;20594;-81
2021/01/14 03:41:56;;;;;;;4.85;2.20;;;1.70;99.90;;;;;;5052889;28;20059;-79
2021/01/14 03:44:23;;;;;;;2.43;1.60;;;1.70;99.90;;;;;;5053848;28;20050;-79
2021/01/14 03:46:50;;;;;;;5.63;2.15;;;1.70;99.90;;;;;;5053251;28;20021;-80
2021/01/14 03:49:17;;;;;;;2.80;1.47;;;1.70;99.90;;;;;;5053754;28;20051;-79
2021/01/14 03:51:44;;;;;;;3.73;2.10;;;1.70;99.90;;;;;;5034945;28;20025;-79
2021/01/14 03:54:13;;;;;;;3.00;1.90;;;1.60;99.90;;;;;;5053835;28;20032;-81
2021/01/14 03:56:40;;;;;;;3.53;2.40;;;1.60;99.90;;;;;;5054364;28;20029;-79
2021/01/14 03:59:06;;;;;;;4.20;2.22;;;1.60;99.90;;;;;;5056579;28;20035;-79
2021/01/14 04:01:33;;;;;;;4.18;2.53;;;1.60;99.90;;;;;;5053703;28;20103;-80
2021/01/14 04:03:59;;;;;;;2.78;1.52;;;1.60;99.90;;;;;;5035491;28;20353;-80
2021/01/14 04:06:37;;;;;;;4.43;2.20;;;1.60;99.90;;;;;;5053221;28;20056;-80
2021/01/14 04:09:06;;;;;;;4.25;2.90;;;1.60;99.90;;;;;;5053728;28;20036;-79
2021/01/14 04:11:32;;;;;;;2.45;1.65;;;1.60;99.90;;;;;;5052387;28;20025;-79
2021/01/14 04:13:59;;;;;;;5.53;2.67;;;1.60;99.90;;;;;;5057562;28;20044;-78
2021/01/14 04:16:25;;;;;;;5.80;2.60;;;1.60;99.90;;;;;;5060986;28;20033;-80
2021/01/14 04:18:51;;;;;;;4.27;2.83;;;1.60;99.90;;;;;;5035055;28;20335;-80
2021/01/14 04:21:17;;;;;;;4.80;2.87;;;1.60;99.90;;;;;;5052363;28;20079;-79
2021/01/14 04:23:43;;;;;;;4.00;2.30;;;1.60;99.90;;;;;;5052174;28;20059;-78
2021/01/14 04:26:09;;;;;;;6.13;2.63;;;1.60;99.90;;;;;;5052974;28;20423;-80
2021/01/14 04:28:37;;;;;;;5.63;3.08;;;1.60;99.90;;;;;;5052006;28;20106;-80
2021/01/14 04:31:03;;;;;;;5.45;3.15;;;1.60;99.90;;;;;;5048927;28;20021;-79
2021/01/14 04:33:30;;;;;;;5.13;2.88;;;1.60;99.90;;;;;;5052169;28;20119;-79
2021/01/14 04:35:57;;;;;;;4.77;3.03;;;1.60;99.90;;;;;;5051232;28;20044;-77
2021/01/14 04:38:25;;;;;;;4.43;1.65;;;1.60;99.90;;;;;;5045257;28;20028;-78
2021/01/14 04:41:02;;;;;;;8.10;2.90;;;1.60;99.90;;;;;;5052428;28;20024;-79
2021/01/14 04:43:29;;;;;;;3.67;2.40;;;1.60;99.90;;;;;;5032944;28;20025;-80
2021/01/14 04:46:07;;;;;;;4.73;2.40;;;1.50;99.90;;;;;;5047262;28;20158;-78
2021/01/14 04:48:39;;;;;;;6.97;3.05;;;1.50;99.90;;;;;;5052015;28;20025;-78
2021/01/14 04:51:16;;;;;;;5.30;3.13;;;1.40;99.90;;;;;;5052772;28;20048;-80
2021/01/14 04:53:43;;;;;;;5.03;2.50;;;1.40;99.90;;;;;;5051214;28;20033;-78
2021/01/14 04:56:11;;;;;;;5.60;3.17;;;1.40;99.90;;;;;;5041665;28;20065;-78
2021/01/14 04:58:39;;;;;;;5.83;3.40;;;1.30;99.90;;;;;;5052768;28;20072;-80
2021/01/14 05:01:21;;;;;;;7.43;3.03;;;1.40;99.90;;;;;;5052953;28;20037;-80
2021/01/14 05:03:52;;;;;;;3.40;2.10;;;1.30;99.90;;;;;;5044589;28;20063;-78
2021/01/14 05:06:22;;;;;;;7.18;3.03;;;1.30;99.90;;;;;;5051064;28;20122;-80
2021/01/14 05:08:50;;;;;;;7.20;3.53;;;1.30;99.90;;;;;;5052312;28;20384;-78
2021/01/14 05:11:18;;;;;;;9.17;4.27;;;1.30;99.90;;;;;;5069586;28;20047;-79
2021/01/14 05:13:46;;;;;;;8.63;3.50;;;1.20;99.90;;;;;;5051917;28;20044;-79
2021/01/14 05:16:12;;;;;;;8.70;3.67;;;1.20;99.90;;;;;;5051456;28;20112;-78
2021/01/14 05:18:38;;;;;;;5.57;3.57;;;1.10;99.90;;;;;;5053255;28;20469;-79
2021/01/14 05:21:04;;;;;;;4.37;2.57;;;1.10;99.90;;;;;;5071048;28;20036;-79
2021/01/14 05:23:32;;;;;;;6.60;3.63;;;1.10;99.90;;;;;;5063466;28;20084;-78
2021/01/14 05:26:00;;;;;;;6.37;3.27;;;1.10;99.90;;;;;;5045761;28;20065;-78
2021/01/14 05:28:27;;;;;;;7.43;4.33;;;1.10;99.90;;;;;;5052056;28;20460;-80
2021/01/14 05:30:53;;;;;;;5.97;3.13;;;1.10;99.90;;;;;;5050510;28;20025;-79
2021/01/14 05:33:20;;;;;;;5.53;2.53;;;1.10;99.90;;;;;;5031513;28;20129;-79
2021/01/14 05:35:49;;;;;;;6.17;3.57;;;1.10;99.90;;;;;;5050630;28;20123;-79
2021/01/14 05:38:29;;;;;;;6.50;3.70;;;1.10;99.90;;;;;;5052538;28;20431;-79
2021/01/14 05:41:11;;;;;;;8.50;3.87;;;1.10;99.90;;;;;;5060534;28;20043;-78
2021/01/14 05:43:49;;;;;;;7.30;4.27;;;1.10;99.90;;;;;;5046577;28;20031;-76
2021/01/14 05:46:20;;;;;;;5.63;2.70;;;1.10;99.90;;;;;;5054915;28;20036;-75
2021/01/14 05:48:47;;;;;;;13.53;3.93;;;1.10;99.90;;;;;;5051547;28;20040;-77
2021/01/14 05:51:23;;;;;;;8.73;4.87;;;1.10;99.90;;;;;;5050675;28;20064;-74
2021/01/14 05:54:00;;;;;;;5.90;3.40;;;1.10;99.90;;;;;;5050000;28;20025;-74
2021/01/14 05:56:49;;;;;;;7.47;4.73;;;1.10;99.90;;;;;;5050009;28;20115;-77
2021/01/14 05:59:16;;;;;;;7.43;4.53;;;1.10;99.90;;;;;;5051166;28;20092;-75
2021/01/14 06:01:53;;;;;;;9.40;3.87;;;1.20;99.90;;;;;;5049770;28;20025;-75
2021/01/14 06:04:21;;;;;;;10.73;4.07;;;1.20;99.90;;;;;;5049847;28;20055;-74
2021/01/14 06:06:49;;;;;;;8.90;4.17;;;1.20;99.90;;;;;;5050433;28;20167;-75
2021/01/14 06:09:16;;;;;;;10.25;4.40;;;1.20;99.90;;;;;;5055232;28;20039;-75
2021/01/14 06:11:43;;;;;;;8.30;3.53;;;1.20;99.90;;;;;;5033374;28;20021;-76
2021/01/14 06:14:30;;;;;;;7.80;4.07;;;1.20;99.90;;;;;;5049571;28;20047;-76
2021/01/14 06:17:01;;;;;;;9.03;4.60;;;1.20;99.90;;;;;;5051287;28;20068;-75
2021/01/14 06:19:27;;;;;;;7.38;3.95;;;1.20;99.90;;;;;;5054691;28;20434;-78
2021/01/14 06:21:57;;;;;;;8.30;4.70;;;1.20;99.90;;;;;;5053848;28;20032;-75
2021/01/14 06:24:35;;;;;;;7.65;3.55;;;1.20;99.90;;;;;;5055327;28;20056;-76
2021/01/14 06:27:04;;;;;;;7.45;4.07;;;1.20;99.90;;;;;;5054629;28;20031;-76
2021/01/14 06:29:31;;;;;;;7.03;4.07;;;1.20;99.90;;;;;;5053989;28;20024;-77
2021/01/14 06:32:17;;;;;;;6.23;4.07;;;1.20;99.90;;;;;;5054171;28;20029;-77
2021/01/14 06:34:45;;;;;;;8.33;4.63;;;1.20;99.90;;;;;;5055211;28;20040;-77
2021/01/14 06:37:15;;;;;;;6.97;4.40;;;1.20;99.90;;;;;;5053552;28;20091;-76
2021/01/14 06:39:45;;;;;;;7.03;4.50;;;1.20;99.90;;;;;;5037070;28;20052;-77
2021/01/14 06:42:31;;;;;;;9.57;5.05;;;1.20;99.90;;;;;;5036055;28;20116;-77
2021/01/14 06:45:07;;;;;;;7.73;5.13;;;1.20;99.90;;;;;;5054367;28;20025;-76
2021/01/14 06:47:43;;;;;;;7.50;4.33;;;1.10;99.90;;;;;;5052648;28;20017;-76
2021/01/14 06:50:15;;;;;;;10.63;5.10;;;1.10;99.90;;;;;;5054734;28;20028;-76
2021/01/14 06:52:49;;;;;;;8.15;4.70;;;1.10;99.90;;;;;;5051250;28;20031;-76
2021/01/14 06:55:16;;;;;;;10.70;5.33;;;1.10;99.90;;;;;;5046795;28;20461;-77
2021/01/14 06:58:03;;;;;;;7.25;3.83;;;1.10;99.90;;;;;;5052422;28;20036;-78
2021/01/14 07:00:30;;;;;;;6.40;4.03;;;1.20;99.90;;;;;;5052849;28;20044;-77
2021/01/14 07:03:14;;;;;;;6.65;4.25;;;1.20;99.90;;;;;;5054079;28;20036;-76
2021/01/14 07:05:52;;;;;;;10.50;5.47;;;1.20;99.90;;;;;;5034597;28;20519;-77
2021/01/14 07:08:41;;;;;;;7.93;3.67;;;1.10;99.90;;;;;;5053712;28;20060;-77
2021/01/14 07:11:12;;;;;;;9.27;3.88;;;1.10;99.90;;;;;;5036957;28;20025;-78
2021/01/14 07:13:40;;;;;;;12.80;5.30;;;1.10;99.90;;;;;;5052119;28;20049;-77
2021/01/14 07:16:08;;;;;;;6.90;3.70;;;1.10;99.90;;;;;;5055010;28;20136;-77
2021/01/14 07:18:35;;;;;;;11.70;5.60;;;1.10;99.90;;;;;;5053670;28;20080;-76
2021/01/14 07:21:33;;;;;;;10.27;5.37;;;1.10;99.90;;;;;;5035512;28;20025;-77
2021/01/14 07:24:08;;;;;;;9.83;4.73;;;1.10;99.90;;;;;;5051653;28;20448;-77
2021/01/14 07:26:37;;;;;;;8.80;5.00;;;1.10;99.90;;;;;;5059975;28;20024;-77
2021/01/14 07:29:06;;;;;;;10.20;4.22;;;1.10;99.90;;;;;;5052167;28;20047;-76
2021/01/14 07:31:32;;;;;;;11.00;5.53;;;1.10;99.90;;;;;;5053816;28;20362;-77
2021/01/14 07:34:34;;;;;;;14.93;6.90;;;1.10;99.90;;;;;;5053698;28;20025;-78
2021/01/14 07:37:01;;;;;;;11.97;6.07;;;1.10;99.90;;;;;;5053050;28;20052;-76
2021/01/14 07:39:58;;;;;;;11.83;5.90;;;1.20;99.90;;;;;;5053619;28;20126;-77
2021/01/14 07:42:27;;;;;;;8.47;4.70;;;1.20;99.90;;;;;;5053492;28;20025;-78
2021/01/14 07:45:04;;;;;;;6.75;4.10;;;1.10;99.90;;;;;;5053533;28;20025;-77
2021/01/14 07:47:34;;;;;;;10.27;4.80;;;1.10;99.90;;;;;;5041081;28;20033;-77
2021/01/14 07:50:20;;;;;;;9.47;5.47;;;1.10;99.90;;;;;;5052571;28;20083;-76
2021/01/14 07:52:48;;;;;;;9.30;4.30;;;1.20;99.90;;;;;;5041431;28;20045;-77
2021/01/14 07:55:24;;;;;;;10.93;5.40;;;1.20;99.90;;;;;;5055507;28;20029;-76
2021/01/14 07:58:21;;;;;;;7.93;3.97;;;1.20;99.90;;;;;;5053988;28;20437;-77
2021/01/14 08:01:11;;;;;;;7.67;4.57;;;1.20;99.90;;;;;;5052873;28;20104;-77
2021/01/14 08:03:41;;;;;;;10.43;4.88;;;1.10;99.90;;;;;;5032384;28;20048;-77
2021/01/14 08:06:25;;;;;;;;;;;1.10;99.90;;;;;;5034503;28;20083;-82
2021/01/14 08:08:55;;;;;;;8.73;4.80;;;1.10;99.90;;;;;;5041091;28;19908;-77
2021/01/14 08:11:25;;;;;;;10.37;4.87;;;1.10;99.90;;;;;;5052717;28;20040;-77
2021/01/14 08:14:09;;;;;;;8.40;4.77;;;1.10;99.90;;;;;;5052812;28;20094;-78
2021/01/14 08:16:34;;;;;;;7.80;4.00;;;1.10;99.90;;;;;;5053372;28;20035;-76
2021/01/14 08:19:31;;;;;;;11.27;5.40;;;1.10;99.90;;;;;;5055122;28;20467;-76
2021/01/14 08:21:59;;;;;;;10.70;5.93;;;1.10;99.90;;;;;;5053100;28;20035;-77
2021/01/14 08:24:46;;;;;;;9.90;5.93;;;1.10;99.90;;;;;;5052199;28;20029;-76
2021/01/14 08:27:13;;;;;;;11.93;5.40;;;1.10;99.90;;;;;;5043212;28;20025;-76
2021/01/14 08:29:44;;;;;;;8.40;4.97;;;1.10;99.90;;;;;;5052873;28;20380;-77
2021/01/14 08:32:43;;;;;;;11.67;5.27;;;1.10;99.90;;;;;;5053053;28;20032;-76
2021/01/14 08:35:18;;;;;;;8.35;4.30;;;1.10;99.90;;;;;;5043890;28;20033;-76
2021/01/14 08:37:56;;;;;;;10.47;4.10;;;1.10;99.90;;;;;;5052980;28;20028;-76
2021/01/14 08:40:32;;;;;;;8.73;4.70;;;1.10;99.90;;;;;;5034138;28;20027;-79
2021/01/14 08:43:00;;;;;;;10.10;5.40;;;1.10;99.90;;;;;;5054367;28;20025;-78
2021/01/14 08:45:30;;;;;;;9.20;4.87;;;1.10;99.90;;;;;;5052291;28;20033;-77
2021/01/14 08:47:58;;;;;;;10.33;4.70;;;1.10;99.90;;;;;;5052542;28;20124;-75
2021/01/14 08:50:38;;;;;;;9.57;4.67;;;1.10;99.90;;;;;;5052438;28;20455;-78
2021/01/14 08:53:06;;;;;;;10.13;5.43;;;1.10;99.90;;;;;;5051961;28;20032;-76
2021/01/14 08:55:33;;;;;;;8.30;4.87;;;1.10;99.90;;;;;;5052218;28;20028;-76
2021/01/14 08:58:00;;;;;;;8.57;5.20;;;1.10;99.90;;;;;;5051813;28;20040;-76
2021/01/14 09:00:27;;;;;;;12.75;4.78;;;1.10;99.90;;;;;;5052539;28;20033;-77
2021/01/14 09:02:53;;;;;;;9.73;5.70;;;1.20;99.90;;;;;;5052030;28;20031;-77
2021/01/14 09:05:19;;;;;;;9.83;5.33;;;1.20;99.90;;;;;;5034608;28;20040;-77
2021/01/14 09:08:04;;;;;;;11.27;5.30;;;1.20;99.90;;;;;;5052469;28;20036;-77
2021/01/14 09:10:52;;;;;;;8.30;4.97;;;1.20;99.90;;;;;;5052560;28;20473;-77
2021/01/14 09:13:25;;;;;;;7.00;4.38;;;1.20;99.90;;;;;;5052385;28;20118;-77
2021/01/14 09:15:54;;;;;;;8.20;4.30;;;1.10;99.90;;;;;;5052441;28;20404;-76
2021/01/14 09:18:34;;;;;;;7.00;3.40;;;1.20;99.90;;;;;;5053088;28;20036;-77
2021/01/14 09:21:01;;;;;;;14.33;5.10;;;1.10;99.90;;;;;;5052478;28;20472;-77
2021/01/14 09:23:35;;;;;;;7.07;4.57;;;1.20;99.90;;;;;;5052294;28;20439;-76
2021/01/14 09:26:03;;;;;;;6.90;3.03;;;1.20;99.90;;;;;;5054391;28;20552;-76
2021/01/14 09:28:30;;;;;;;7.10;3.57;;;1.10;99.90;;;;;;5034244;28;20057;-77
2021/01/14 09:31:17;;;;;;;10.87;5.00;;;1.10;99.90;;;;;;5051041;28;20028;-77
2021/01/14 09:33:44;;;;;;;9.90;3.70;;;1.10;99.90;;;;;;5038754;28;20025;-77
2021/01/14 09:36:11;;;;;;;8.33;3.77;;;1.10;99.90;;;;;;5051797;28;20116;-78
2021/01/14 09:38:38;;;;;;;7.20;4.30;;;1.10;99.90;;;;;;5067253;28;20039;-76
2021/01/14 09:41:04;;;;;;;7.60;4.13;;;1.10;99.90;;;;;;5051486;28;20021;-76
2021/01/14 09:43:31;;;;;;;7.30;3.70;;;1.10;99.90;;;;;;5051707;28;20040;-76
2021/01/14 09:45:57;;;;;;;7.97;4.17;;;1.10;99.90;;;;;;5033600;28;20021;-77
2021/01/14 09:48:23;;;;;;;6.70;3.43;;;1.10;99.90;;;;;;5051628;28;20032;-78
2021/01/14 09:50:52;;;;;;;10.93;4.65;;;1.10;99.90;;;;;;5050955;28;20484;-77
2021/01/14 09:53:18;;;;;;;9.13;4.80;;;1.20;99.90;;;;;;5050659;28;20036;-78
2021/01/14 09:55:44;;;;;;;11.27;5.18;;;1.20;99.90;;;;;;5050963;28;20043;-76
2021/01/14 09:58:18;;;;;;;7.55;4.45;;;1.20;99.90;;;;;;5051425;28;20028;-77
2021/01/14 10:00:46;;;;;;;7.63;4.72;;;1.20;99.90;;;;;;5033500;28;20029;-78
2021/01/14 10:03:15;;;;;;;9.00;4.47;;;1.20;99.90;;;;;;5051203;28;20021;-75
2021/01/14 10:05:41;;;;;;;10.05;4.53;;;1.20;99.90;;;;;;5052144;28;20040;-77
2021/01/14 10:08:22;;;;;;;7.50;3.50;;;1.20;99.90;;;;;;5051513;28;20037;-76
2021/01/14 10:10:49;;;;;;;7.83;4.57;;;1.20;99.90;;;;;;5051440;28;20477;-77
2021/01/14 10:13:15;;;;;;;10.63;4.23;;;1.10;99.90;;;;;;5050804;28;20037;-76
2021/01/14 10:15:41;;;;;;;7.57;3.40;;;1.10;99.90;;;;;;5052347;28;20041;-76
2021/01/14 10:18:21;;;;;;;8.60;4.53;;;1.10;99.90;;;;;;5050967;28;20045;-76
2021/01/14 10:20:47;;;;;;;;;;;1.10;99.90;;;;;;5051772;28;20051;-77
2021/01/14 10:23:23;;;;;;;9.30;4.83;;;1.00;99.90;;;;;;5051407;28;19987;-77
2021/01/14 10:25:49;;;;;;;10.63;5.03;;;1.00;99.90;;;;;;5050914;28;20025;-76
2021/01/14 10:28:14;;;;;;;7.67;4.77;;;1.00;99.90;;;;;;5053338;28;20033;-77
2021/01/14 10:30:41;;;;;;;9.10;4.77;;;1.00;99.90;;;;;;5052416;28;20087;-76
2021/01/14 10:33:07;;;;;;;11.77;5.70;;;1.00;99.90;;;;;;5033428;28;20029;-76
2021/01/14 10:35:36;;;;;;;9.07;4.97;;;0.90;99.90;;;;;;5050420;28;20033;-76
2021/01/14 10:38:07;;;;;;;8.27;4.40;;;1.00;99.90;;;;;;5050863;28;20472;-75
2021/01/14 10:40:37;;;;;;;4.57;2.17;;;0.90;99.90;;;;;;5050884;28;20040;-76
2021/01/14 10:43:04;;;;;;;5.83;2.13;;;0.70;99.90;;;;;;5050771;28;20037;-75
2021/01/14 10:45:31;;;;;;;4.73;2.10;;;0.40;99.90;;;;;;5051283;28;20121;-77
2021/01/14 10:48:15;;;;;;;4.00;2.00;;;0.30;99.90;;;;;;5051463;28;20100;-76
2021/01/14 10:50:45;;;;;;;4.73;1.80;;;0.30;99.90;;;;;;5051213;28;20176;-75
2021/01/14 10:53:12;;;;;;;3.93;1.50;;;0.20;99.90;;;;;;5033190;28;20022;-76
2021/01/14 10:55:37;;;;;;;2.67;1.30;;;0.10;99.90;;;;;;5050878;28;20381;-76
2021/01/14 10:58:06;;;;;;;4.07;1.47;;;0.10;99.90;;;;;;5051108;28;20068;-75
2021/01/14 11:00:39;;;;;;;2.20;1.33;;;0.00;99.90;;;;;;5051165;28;20495;-78
2021/01/14 11:03:10;;;;;;;3.03;1.27;;;0.00;99.90;;;;;;5052155;28;20431;-76
2021/01/14 11:05:45;;;;;;;3.93;1.37;;;0.00;99.90;;;;;;5054506;28;20660;-76
2021/01/14 11:08:20;;;;;;;4.53;1.70;;;0.00;99.90;;;;;;5036996;28;20104;-77
2021/01/14 11:11:07;;;;;;;5.33;1.70;;;0.10;99.90;;;;;;5054603;28;20422;-76
2021/01/14 11:13:47;;;;;;;2.97;1.63;;;0.10;99.90;;;;;;5035825;28;20095;-75
2021/01/14 11:16:15;;;;;;;3.53;1.50;;;0.10;99.90;;;;;;5054131;28;20068;-75
2021/01/14 11:18:43;;;;;;;1.10;0.50;;;0.10;99.90;;;;;;5055190;28;20100;-76
2021/01/14 11:21:10;;;;;;;2.70;1.20;;;0.00;99.90;;;;;;5054409;28;20112;-76
2021/01/14 11:23:36;;;;;;;2.43;1.40;;;0.00;99.90;;;;;;5054360;28;20557;-76
2021/01/14 11:26:02;;;;;;;3.80;1.50;;;0.00;99.90;;;;;;5055263;28;20060;-76
2021/01/14 11:28:33;;;;;;;2.87;1.43;;;0.00;99.90;;;;;;5060001;28;20060;-76
2021/01/14 11:30:59;;;;;;;4.00;1.60;;;0.00;99.90;;;;;;5053177;28;20391;-77
2021/01/14 11:33:25;;;;;;;2.53;1.47;;;0.10;99.90;;;;;;5054713;28;20112;-76
2021/01/14 11:35:51;;;;;;;3.03;1.43;;;0.00;99.90;;;;;;5053727;28;20294;-78
2021/01/14 11:38:18;;;;;;;2.67;1.30;;;0.10;99.90;;;;;;5053583;28;20033;-77
2021/01/14 11:40:47;;;;;;;2.00;0.90;;;0.00;99.90;;;;;;5053736;28;20037;-77
2021/01/14 11:43:13;;;;;;;2.97;1.30;;;-0.10;99.90;;;;;;5053458;28;20127;-76
2021/01/14 11:45:40;;;;;;;2.80;1.20;;;-0.30;99.90;;;;;;5035508;28;20127;-75
2021/01/14 11:48:06;;;;;;;2.87;1.00;;;-0.40;99.90;;;;;;5051315;28;20036;-77
2021/01/14 11:50:32;;;;;;;1.83;0.93;;;-0.40;99.90;;;;;;5053411;28;20032;-76
2021/01/14 11:52:57;;;;;;;3.87;1.53;;;-0.60;99.90;;;;;;5035689;28;20028;-76
2021/01/14 11:55:23;;;;;;;1.37;0.70;;;-0.60;99.90;;;;;;5053803;28;20029;-78
2021/01/14 11:57:49;;;;;;;2.00;0.90;;;-0.70;99.90;;;;;;5052182;28;20033;-76
2021/01/14 12:00:15;;;;;;;1.67;1.20;;;-0.80;99.90;;;;;;5053486;28;20029;-75
2021/01/14 12:02:42;;;;;;;2.50;1.33;;;-0.70;99.90;;;;;;5035153;28;20445;-75
2021/01/14 12:05:08;;;;;;;2.57;1.37;;;-0.70;99.90;;;;;;5034817;28;20392;-78
2021/01/14 12:07:35;;;;;;;2.23;1.30;;;-0.70;99.90;;;;;;5053119;28;20465;-75
2021/01/14 12:10:03;;;;;;;4.53;1.50;;;-0.60;99.90;;;;;;5053694;28;20021;-75
2021/01/14 12:12:29;;;;;;;2.77;1.20;;;-0.70;99.90;;;;;;5053659;28;20025;-77
2021/01/14 12:14:54;;;;;;;2.40;1.30;;;-0.60;99.90;;;;;;5052647;28;20059;-75
2021/01/14 12:17:20;;;;;;;2.90;0.90;;;-0.60;99.90;;;;;;5053135;28;20476;-76
2021/01/14 12:19:45;;;;;;;2.50;0.90;;;-0.60;99.90;;;;;;5052207;28;20040;-80
2021/01/14 12:22:11;;;;;;;2.63;1.00;;;-0.60;99.90;;;;;;5055026;28;20384;-79
2021/01/14 12:24:36;;;;;;;3.73;1.00;;;-0.60;99.90;;;;;;5054758;28;20446;-80
2021/01/14 12:27:02;;;;;;;1.70;1.00;;;-0.60;99.90;;;;;;5054722;28;20013;-78
2021/01/14 12:29:28;;;;;;;1.00;0.70;;;-0.50;99.90;;;;;;5053659;28;20032;-78
2021/01/14 12:31:54;;;;;;;1.53;0.80;;;-0.60;99.90;;;;;;5053246;28;20065;-80
2021/01/14 12:34:23;;;;;;;1.93;0.60;;;-0.50;99.90;;;;;;5053318;28;20053;-80
2021/01/14 12:36:49;;;;;;;2.30;0.93;;;-0.50;99.90;;;;;;5043230;28;20045;-80
2021/01/14 12:39:14;;;;;;;2.47;1.03;;;-0.50;99.90;;;;;;5053049;28;20036;-79
2021/01/14 12:41:40;;;;;;;0.97;0.70;;;-0.50;99.90;;;;;;5054607;28;20037;-81
2021/01/14 12:44:06;;;;;;;1.47;0.77;;;-0.50;99.90;;;;;;5038331;28;20029;-81
2021/01/14 12:46:33;;;;;;;2.23;0.80;;;-0.50;99.90;;;;;;5053365;28;20048;-81
2021/01/14 12:48:59;;;;;;;2.80;0.80;;;-0.50;99.90;;;;;;5052931;28;20107;-82
2021/01/14 12:51:25;;;;;;;2.93;0.90;;;-0.50;99.90;;;;;;5052674;28;20116;-81
2021/01/14 12:53:50;;;;;;;1.87;0.80;;;-0.60;99.90;;;;;;5052865;28;20717;-81
2021/01/14 12:56:16;;;;;;;0.87;0.60;;;-0.60;99.90;;;;;;5042054;28;20040;-80
2021/01/14 12:58:42;;;;;;;3.83;1.00;;;-0.60;99.90;;;;;;5052581;28;20027;-80
2021/01/14 13:01:08;;;;;;;1.63;0.97;;;-0.70;99.90;;;;;;5053377;28;20040;-80
2021/01/14 13:03:33;;;;;;;1.47;0.80;;;-0.70;99.90;;;;;;5056723;28;20017;-81
2021/01/14 13:05:59;;;;;;;2.50;1.63;;;-0.80;99.90;;;;;;5053803;28;20032;-80
2021/01/14 13:08:24;;;;;;;2.80;1.30;;;-0.80;99.90;;;;;;5054313;28;20031;-81
2021/01/14 13:10:50;;;;;;;3.53;1.40;;;-0.80;99.90;;;;;;5053115;28;20055;-82